Airfield :
LOGIN :

Register | Disclaimer

   EN    FR    IT 

 










Legend :    VFR   Marginal VFR   IFR   Intensive IFR   Very Intensive IFR
Visi :
Ceiling :
>= 8 km
>= 3000ft
5 to 8 km
1000 to 3000 ft
1500m to 5 km
500 to 1000 ft
800 to 1500m
200 to 500 ft
< 800m
< 200 ft
Symbols :   Thunderstorms  Fog  Heavy snow  Heavy precipitations  Wind > 20 kt
SIGMETs :     Misc.  Thunderstorms  Icing  Turbulence  Mountain Waves  Volcanic Ashes







- Airport Elevation : 313 ft
- Download approach charts


LFQA - Reims-Prunay

CURRENT METAR :
  • 181800Z AUTO 26006KT 230V290 CAVOK 22/15 Q1016

EXPIRED METARs :
  • 181730Z AUTO 26006KT 230V300 9999 FEW045 OVC130 22/15 Q1016
  • 181700Z AUTO 26009KT CAVOK 22/15 Q1016
  • 181630Z AUTO 26010KT CAVOK 23/15 Q1015
  • 181600Z AUTO 25010KT 9999 ///TCU 24/15 Q1015
  • 181530Z AUTO 27009KT 240V310 CAVOK 25/16 Q1015

TAF N/A
No reported NOTAMs for that airfield.
1 SIGMET reported for the Paris FIR (LFFF) :
 
Embedded thunderstorms
LFFF SIGMET 2 VALID 181700/182000 LFPW
LFFF PARIS FIR/UIR EMBD TS OBS WI N4715 E00415 - N4700 E00430 - N4645 E00415 - N4700 E00345 - N4715 E00415 TOP FL380 MOV NE 10KT NC=



MET'MAP, your aeronautical weather chart ! - Copyright ORBIFLY December 2007 - Disclaimer

ORBIFLY MET'MAP TEAM :

Programming & Development : Alexandra Zaïnal
Concept & Development : Baudouin d'Aumeries
Co-Development & Prog : Marc-Olivier Méhu
Technical & hardware support : Manuel Goepfert

Contact : metmap@orbifly.com




SOURCES & CREDITS :

   NOAA